Time;durP1;ratioP1;P1;durP2;ratioP2;P2;SDS_P1;SDS_P2;PMS_P1;PMS_P2;Temp;Humidity;BMP_temperature;BMP_pressure;BME280_temperature;BME280_humidity;BME280_pressure;Samples;Min_cycle;Max_cycle;Signal;HPM_P1;HPM_P2
2023/09/14 00:00:19;;;;;;;0.00;0.00;;;9.60;99.90;;;;;;5123791;27;20043;-74
2023/09/14 00:02:45;;;;;;;0.20;0.20;;;9.50;99.90;;;;;;5121657;27;20390;-74
2023/09/14 00:05:11;;;;;;;0.60;0.45;;;9.50;99.90;;;;;;5122086;27;20039;-74
2023/09/14 00:07:37;;;;;;;0.00;0.00;;;9.50;99.90;;;;;;5124937;27;20525;-74
2023/09/14 00:10:03;;;;;;;0.00;0.00;;;9.40;99.90;;;;;;5125153;27;20086;-74
2023/09/14 00:12:28;;;;;;;0.10;0.10;;;9.40;99.90;;;;;;5124304;27;20074;-74
2023/09/14 00:14:54;;;;;;;0.00;0.00;;;9.40;99.90;;;;;;5117809;27;20047;-74
2023/09/14 00:17:20;;;;;;;0.00;0.00;;;9.40;99.90;;;;;;5120647;27;20040;-74
2023/09/14 00:19:45;;;;;;;0.00;0.00;;;9.30;99.90;;;;;;5123655;28;20040;-74
2023/09/14 00:22:11;;;;;;;0.17;0.17;;;9.30;99.90;;;;;;5123645;28;20054;-74
2023/09/14 00:24:37;;;;;;;0.00;0.00;;;9.40;99.90;;;;;;5122206;27;20056;-73
2023/09/14 00:27:03;;;;;;;0.00;0.00;;;9.40;99.90;;;;;;5124516;28;20039;-73
2023/09/14 00:29:29;;;;;;;0.10;0.10;;;9.40;99.90;;;;;;5124305;27;20039;-73
2023/09/14 00:31:55;;;;;;;0.00;0.00;;;9.50;99.90;;;;;;5122293;27;20031;-74
2023/09/14 00:34:21;;;;;;;0.20;0.10;;;9.50;99.90;;;;;;5109650;28;20043;-74
2023/09/14 00:36:46;;;;;;;0.00;0.00;;;9.60;99.90;;;;;;5125113;28;20027;-74
2023/09/14 00:39:12;;;;;;;0.22;0.20;;;9.60;99.90;;;;;;5121315;28;20062;-74
2023/09/14 00:41:38;;;;;;;0.00;0.00;;;9.70;99.90;;;;;;5121577;28;20031;-74
2023/09/14 00:44:04;;;;;;;0.08;0.08;;;9.70;99.90;;;;;;5127915;28;20134;-73
2023/09/14 00:46:30;;;;;;;0.03;0.03;;;9.80;99.90;;;;;;5121422;28;20088;-74
2023/09/14 00:48:57;;;;;;;0.00;0.00;;;9.70;99.90;;;;;;5121071;28;20036;-74
2023/09/14 00:51:23;;;;;;;0.10;0.10;;;9.70;99.90;;;;;;5124072;27;20055;-74
2023/09/14 00:53:50;;;;;;;2.65;0.90;;;9.70;99.90;;;;;;5125431;27;20032;-74
2023/09/14 00:56:18;;;;;;;0.00;0.00;;;9.70;99.90;;;;;;5126326;27;20043;-74
2023/09/14 00:58:44;;;;;;;0.00;0.00;;;9.70;99.90;;;;;;5128085;27;20046;-74
2023/09/14 01:01:10;;;;;;;0.00;0.00;;;9.70;99.90;;;;;;5127972;27;20381;-75
2023/09/14 01:03:36;;;;;;;1.38;0.38;;;9.70;99.90;;;;;;5116459;27;20039;-73
2023/09/14 01:06:02;;;;;;;0.20;0.08;;;10.70;99.90;;;;;;5124990;27;20073;-73
2023/09/14 01:08:28;;;;;;;0.00;0.00;;;9.80;99.90;;;;;;5126181;27;20509;-74
2023/09/14 01:10:54;;;;;;;0.00;0.00;;;9.80;99.90;;;;;;5127440;27;20122;-74
2023/09/14 01:13:46;;;;;;;4.00;0.82;;;9.80;1.00;;;;;;5127824;27;20031;-74
2023/09/14 01:16:21;;;;;;;0.20;0.20;;;9.80;1.00;;;;;;5102461;27;20047;-72
2023/09/14 01:18:55;;;;;;;0.00;0.00;;;9.80;1.00;;;;;;5125278;27;20047;-74
2023/09/14 01:21:39;;;;;;;0.30;0.20;;;9.90;1.00;;;;;;5121960;27;20071;-73
2023/09/14 01:24:26;;;;;;;0.10;0.10;;;9.90;1.00;;;;;;5116936;27;20407;-73
2023/09/14 01:26:52;;;;;;;0.00;0.00;;;9.90;1.00;;;;;;5132895;27;20143;-73
2023/09/14 01:29:17;;;;;;;0.00;0.00;;;9.90;1.00;;;;;;5124140;27;20152;-73
2023/09/14 01:31:43;;;;;;;0.10;0.10;;;9.90;1.00;;;;;;5124073;27;20488;-73
2023/09/14 01:34:09;;;;;;;0.00;0.00;;;9.90;1.00;;;;;;5124542;27;20042;-73
2023/09/14 01:36:59;;;;;;;0.00;0.00;;;9.90;1.00;;;;;;5124175;27;20042;-73
2023/09/14 01:39:27;;;;;;;0.32;0.32;;;9.90;1.00;;;;;;5117773;27;20043;-73
2023/09/14 01:41:57;;;;;;;0.00;0.00;;;9.90;1.00;;;;;;5123998;27;20469;-73
2023/09/14 01:44:25;;;;;;;0.00;0.00;;;10.00;1.00;;;;;;5127533;27;20065;-75
2023/09/14 01:46:51;;;;;;;0.00;0.00;;;9.90;1.00;;;;;;5127454;27;20088;-73
2023/09/14 01:49:17;;;;;;;3.20;0.28;;;9.90;1.00;;;;;;5124511;27;20166;-72
2023/09/14 01:51:42;;;;;;;0.00;0.00;;;9.80;1.00;;;;;;5121179;27;20130;-72
2023/09/14 01:54:08;;;;;;;0.00;0.00;;;9.80;1.00;;;;;;5125888;27;20049;-74
2023/09/14 01:56:34;;;;;;;0.00;0.00;;;9.80;1.00;;;;;;5123799;27;20035;-75
2023/09/14 01:59:00;;;;;;;0.35;0.28;;;9.80;1.00;;;;;;5123790;27;20084;-74
2023/09/14 02:01:25;;;;;;;0.20;0.10;;;9.70;1.00;;;;;;5115912;27;20123;-74
2023/09/14 02:03:51;;;;;;;0.30;0.30;;;9.70;1.00;;;;;;5126642;27;20696;-73
2023/09/14 02:06:16;;;;;;;0.43;0.17;;;9.60;1.00;;;;;;5126815;27;20050;-74
2023/09/14 02:08:42;;;;;;;0.00;0.00;;;9.60;1.00;;;;;;5123570;27;20036;-74
2023/09/14 02:11:08;;;;;;;0.00;0.00;;;9.50;1.00;;;;;;5117174;27;20048;-74
2023/09/14 02:13:34;;;;;;;0.00;0.00;;;9.40;1.00;;;;;;5126275;27;20095;-74
2023/09/14 02:16:00;;;;;;;0.00;0.00;;;9.40;1.00;;;;;;5124451;27;20106;-74
2023/09/14 02:18:26;;;;;;;2.28;0.45;;;9.40;1.00;;;;;;5123736;27;20177;-74
2023/09/14 02:20:51;;;;;;;0.00;0.00;;;9.40;1.00;;;;;;5126014;27;20042;-74
2023/09/14 02:23:18;;;;;;;0.20;0.15;;;9.30;1.00;;;;;;5127312;27;20065;-74
2023/09/14 02:25:44;;;;;;;0.00;0.00;;;9.30;1.00;;;;;;5126193;27;20046;-74
2023/09/14 02:28:10;;;;;;;0.00;0.00;;;9.30;1.00;;;;;;5123567;27;20044;-74
2023/09/14 02:30:41;;;;;;;2.40;0.10;;;9.20;1.00;;;;;;5123354;27;20043;-75
2023/09/14 02:33:10;;;;;;;0.00;0.00;;;9.20;1.00;;;;;;5117376;27;20039;-74
2023/09/14 02:35:36;;;;;;;0.35;0.35;;;9.20;1.00;;;;;;5127123;27;20028;-74
2023/09/14 02:38:02;;;;;;;0.00;0.00;;;9.20;1.00;;;;;;5123455;27;20039;-74
2023/09/14 02:40:29;;;;;;;0.00;0.00;;;9.10;1.00;;;;;;5123199;27;20074;-73
2023/09/14 02:42:55;;;;;;;0.00;0.00;;;9.10;1.00;;;;;;5124105;27;20039;-74
2023/09/14 02:45:21;;;;;;;0.00;0.00;;;9.10;1.00;;;;;;5127294;27;20047;-74
2023/09/14 02:47:46;;;;;;;0.70;0.60;;;9.10;1.00;;;;;;5126684;27;20110;-74
2023/09/14 02:50:12;;;;;;;0.00;0.00;;;9.00;1.00;;;;;;5124472;27;20092;-74
2023/09/14 02:52:38;;;;;;;0.00;0.00;;;8.90;1.00;;;;;;5122734;27;20090;-74
2023/09/14 02:55:03;;;;;;;0.10;0.10;;;8.90;1.00;;;;;;5124191;27;20172;-73
2023/09/14 02:57:29;;;;;;;0.13;0.10;;;8.80;1.00;;;;;;5123205;27;20446;-73
2023/09/14 02:59:55;;;;;;;0.00;0.00;;;8.80;1.00;;;;;;5126041;27;20115;-74
2023/09/14 03:02:24;;;;;;;0.00;0.00;;;8.70;1.00;;;;;;5116063;27;20089;-73
2023/09/14 03:04:50;;;;;;;0.10;0.10;;;8.60;1.00;;;;;;5123383;27;20484;-74
2023/09/14 03:07:16;;;;;;;0.00;0.00;;;8.50;1.00;;;;;;5123454;27;20042;-74
2023/09/14 03:09:42;;;;;;;0.32;0.32;;;8.40;1.00;;;;;;5124603;27;20103;-74
2023/09/14 03:12:08;;;;;;;0.00;0.00;;;8.40;1.00;;;;;;5126651;27;20054;-74
2023/09/14 03:14:34;;;;;;;0.00;0.00;;;8.30;1.00;;;;;;5124465;27;20035;-74
2023/09/14 03:16:59;;;;;;;0.10;0.10;;;8.20;1.00;;;;;;5123165;27;20046;-74
2023/09/14 03:19:26;;;;;;;2.40;0.17;;;8.10;1.00;;;;;;5122115;27;20050;-74
2023/09/14 03:21:51;;;;;;;0.00;0.00;;;8.10;1.00;;;;;;5126154;27;20484;-73
2023/09/14 03:24:17;;;;;;;0.25;0.25;;;8.00;1.00;;;;;;5126086;27;20037;-74
2023/09/14 03:26:43;;;;;;;0.00;0.00;;;8.00;1.00;;;;;;5125033;27;20047;-73
2023/09/14 03:29:09;;;;;;;0.00;0.00;;;8.00;9.00;;;;;;5122309;27;20093;-73
2023/09/14 03:31:37;;;;;;;0.00;0.00;;;7.90;25.20;;;;;;5122815;27;20472;-74
2023/09/14 03:34:05;;;;;;;0.17;0.13;;;7.90;42.00;;;;;;5125435;27;20061;-74
2023/09/14 03:36:31;;;;;;;0.00;0.00;;;8.10;57.50;;;;;;5125582;27;20039;-74
2023/09/14 03:38:56;;;;;;;0.20;0.17;;;7.80;72.80;;;;;;5124251;27;20036;-74
2023/09/14 03:41:22;;;;;;;0.00;0.00;;;7.80;85.10;;;;;;5121712;27;20035;-74
2023/09/14 03:43:47;;;;;;;1.38;0.43;;;7.70;94.30;;;;;;5130792;27;20039;-74
2023/09/14 03:46:14;;;;;;;0.10;0.10;;;7.70;99.00;;;;;;5122736;27;20040;-73
2023/09/14 03:48:40;;;;;;;0.00;0.00;;;7.60;99.90;;;;;;5118932;27;20461;-74
2023/09/14 03:51:06;;;;;;;0.20;0.20;;;7.60;99.90;;;;;;5122835;27;20075;-74
2023/09/14 03:53:31;;;;;;;0.00;0.00;;;7.60;99.90;;;;;;5129743;27;20401;-73
2023/09/14 03:56:00;;;;;;;0.88;0.38;;;7.50;99.90;;;;;;5120830;27;20052;-73
2023/09/14 03:58:26;;;;;;;0.00;0.00;;;7.60;99.90;;;;;;5118995;27;20493;-74
2023/09/14 04:00:53;;;;;;;0.00;0.00;;;7.50;99.90;;;;;;5116660;27;20036;-73
2023/09/14 04:03:19;;;;;;;0.00;0.00;;;7.30;99.90;;;;;;5123704;27;20051;-73
2023/09/14 04:05:45;;;;;;;0.35;0.32;;;7.30;99.90;;;;;;5125969;27;20043;-74
2023/09/14 04:08:11;;;;;;;0.00;0.00;;;7.30;99.90;;;;;;5126874;27;20046;-73
2023/09/14 04:10:40;;;;;;;0.00;0.00;;;7.30;99.90;;;;;;5122731;27;20086;-73
2023/09/14 04:13:29;;;;;;;0.00;0.00;;;7.20;99.90;;;;;;5121493;27;20035;-74
2023/09/14 04:15:55;;;;;;;0.00;0.00;;;7.20;99.90;;;;;;5113679;27;20052;-73
2023/09/14 04:18:21;;;;;;;0.00;0.00;;;7.10;99.90;;;;;;5108697;27;20043;-73
2023/09/14 04:20:48;;;;;;;0.20;0.20;;;7.10;99.90;;;;;;5117504;27;20062;-74
2023/09/14 04:23:13;;;;;;;0.10;0.10;;;7.10;99.90;;;;;;5123794;27;20082;-73
2023/09/14 04:25:44;;;;;;;0.70;0.52;;;7.00;99.90;;;;;;5123432;28;20075;-73
2023/09/14 04:28:12;;;;;;;0.00;0.00;;;7.00;99.90;;;;;;5114551;28;20054;-74
2023/09/14 04:30:45;;;;;;;0.00;0.00;;;7.00;99.90;;;;;;5119191;28;20125;-73
2023/09/14 04:33:15;;;;;;;0.00;0.00;;;7.00;99.90;;;;;;5125508;27;20035;-73
2023/09/14 04:35:41;;;;;;;0.00;0.00;;;7.00;99.90;;;;;;5125372;27;20062;-73
2023/09/14 04:38:07;;;;;;;0.00;0.00;;;6.90;99.90;;;;;;5117508;27;20032;-73
2023/09/14 04:40:41;;;;;;;0.00;0.00;;;6.90;99.90;;;;;;5124855;27;20035;-73
2023/09/14 04:43:08;;;;;;;0.00;0.00;;;6.80;99.90;;;;;;5115998;27;20043;-73
2023/09/14 04:45:34;;;;;;;0.00;0.00;;;6.70;99.90;;;;;;5124940;27;20472;-73
2023/09/14 04:48:00;;;;;;;0.00;0.00;;;6.80;99.90;;;;;;5115830;28;20043;-73
2023/09/14 04:50:26;;;;;;;0.00;0.00;;;6.80;99.90;;;;;;5125219;27;20039;-73
2023/09/14 04:52:52;;;;;;;0.10;0.10;;;6.80;99.90;;;;;;5124639;27;20507;-74
2023/09/14 04:55:18;;;;;;;1.40;0.70;;;6.80;99.90;;;;;;5122477;28;20043;-73
2023/09/14 04:57:43;;;;;;;0.00;0.00;;;6.90;99.90;;;;;;5127204;28;20039;-73
2023/09/14 05:00:10;;;;;;;0.00;0.00;;;6.80;99.90;;;;;;5124701;28;20043;-73
2023/09/14 05:02:37;;;;;;;0.70;0.43;;;6.80;99.90;;;;;;5121988;28;20032;-74
2023/09/14 05:05:04;;;;;;;0.00;0.00;;;6.80;99.90;;;;;;5121961;27;20043;-73
2023/09/14 05:07:29;;;;;;;0.00;0.00;;;6.80;99.90;;;;;;5122856;28;20043;-74
2023/09/14 05:09:55;;;;;;;0.45;0.32;;;6.80;99.90;;;;;;5124751;27;20040;-73
2023/09/14 05:12:21;;;;;;;0.00;0.00;;;6.80;99.90;;;;;;5124134;28;20062;-73
2023/09/14 05:14:47;;;;;;;4.10;0.30;;;6.80;99.90;;;;;;5120495;28;20492;-73
2023/09/14 05:17:12;;;;;;;0.20;0.20;;;6.80;99.90;;;;;;5120107;28;20031;-73
2023/09/14 05:19:42;;;;;;;0.00;0.00;;;6.90;99.90;;;;;;5123053;28;20056;-73
2023/09/14 05:22:08;;;;;;;1.25;0.85;;;6.90;99.90;;;;;;5121463;28;20514;-74
2023/09/14 05:24:34;;;;;;;0.00;0.00;;;6.90;99.90;;;;;;5121142;27;20481;-73
2023/09/14 05:27:00;;;;;;;0.40;0.32;;;7.00;99.90;;;;;;5124799;28;20035;-73
2023/09/14 05:29:26;;;;;;;0.00;0.00;;;7.00;99.90;;;;;;5124701;27;20378;-73
2023/09/14 05:31:52;;;;;;;0.10;0.10;;;7.10;99.90;;;;;;5122401;28;20046;-73
2023/09/14 05:34:17;;;;;;;0.00;0.00;;;7.10;99.90;;;;;;5120739;28;20059;-73
2023/09/14 05:36:43;;;;;;;0.00;0.00;;;7.20;99.90;;;;;;5122663;27;20050;-73
2023/09/14 05:39:09;;;;;;;0.10;0.10;;;7.20;99.90;;;;;;5127514;27;20122;-73
2023/09/14 05:41:35;;;;;;;0.00;0.00;;;7.20;99.90;;;;;;5127914;27;20106;-73
2023/09/14 05:44:03;;;;;;;0.38;0.22;;;7.30;99.90;;;;;;5126413;27;20118;-73
2023/09/14 05:46:29;;;;;;;0.15;0.15;;;7.40;99.90;;;;;;5109215;27;20433;-73
2023/09/14 05:48:54;;;;;;;0.10;0.10;;;7.50;99.90;;;;;;5127592;27;20036;-73
2023/09/14 05:51:20;;;;;;;0.10;0.10;;;7.50;99.90;;;;;;5124098;27;20058;-73
2023/09/14 05:53:46;;;;;;;0.10;0.10;;;7.60;99.90;;;;;;5124318;27;20085;-73
2023/09/14 05:56:12;;;;;;;0.00;0.00;;;7.60;99.90;;;;;;5126668;27;20047;-73
2023/09/14 05:58:37;;;;;;;0.00;0.00;;;7.70;99.90;;;;;;5124293;27;20031;-73
2023/09/14 06:01:04;;;;;;;0.00;0.00;;;7.70;99.90;;;;;;5122747;27;20517;-73
2023/09/14 06:03:30;;;;;;;0.10;0.10;;;7.80;99.90;;;;;;5115317;27;20096;-73
2023/09/14 06:05:56;;;;;;;0.00;0.00;;;7.90;99.90;;;;;;5111302;27;20438;-73
2023/09/14 06:08:21;;;;;;;0.10;0.10;;;8.00;99.90;;;;;;5112628;27;20036;-73
2023/09/14 06:10:47;;;;;;;0.38;0.25;;;8.10;99.90;;;;;;5110111;27;20039;-73
2023/09/14 06:13:12;;;;;;;0.00;0.00;;;8.30;99.90;;;;;;5111098;27;20122;-73
2023/09/14 06:15:38;;;;;;;0.00;0.00;;;8.80;99.90;;;;;;5123017;27;20031;-73
2023/09/14 06:18:04;;;;;;;0.00;0.00;;;9.10;99.90;;;;;;5127115;27;20039;-73
2023/09/14 06:20:30;;;;;;;0.47;0.45;;;9.40;99.90;;;;;;5125718;27;20118;-73
2023/09/14 06:22:55;;;;;;;0.00;0.00;;;9.80;99.90;;;;;;5102520;27;20057;-73
2023/09/14 06:25:21;;;;;;;0.10;0.10;;;10.30;99.90;;;;;;5127424;27;20039;-73
2023/09/14 06:27:46;;;;;;;5.97;1.55;;;10.80;70.30;;;;;;5125171;27;20504;-73
2023/09/14 06:30:12;;;;;;;0.00;0.00;;;11.30;1.00;;;;;;5125022;27;20035;-73
2023/09/14 06:32:38;;;;;;;0.00;0.00;;;11.70;99.90;;;;;;5126944;27;20502;-74
2023/09/14 06:35:04;;;;;;;0.00;0.00;;;12.00;1.00;;;;;;5123769;27;20546;-74
2023/09/14 06:37:30;;;;;;;0.20;0.20;;;12.30;99.90;;;;;;5123283;27;20047;-74
2023/09/14 06:39:56;;;;;;;0.00;0.00;;;12.20;99.90;;;;;;5124072;27;20477;-74
2023/09/14 06:42:22;;;;;;;0.00;0.00;;;11.90;99.90;;;;;;5122949;27;20043;-74
2023/09/14 06:44:47;;;;;;;0.30;0.25;;;11.60;99.90;;;;;;5102127;27;20430;-74
2023/09/14 06:47:13;;;;;;;0.10;0.10;;;11.30;1.00;;;;;;5090438;27;20047;-74
2023/09/14 06:49:38;;;;;;;0.05;0.05;;;11.10;1.00;;;;;;5114317;27;20127;-74
2023/09/14 06:52:04;;;;;;;0.00;0.00;;;10.90;93.40;;;;;;5107123;27;20078;-74
2023/09/14 06:54:30;;;;;;;0.00;0.00;;;10.80;99.90;;;;;;5115797;27;20130;-74
2023/09/14 06:56:56;;;;;;;0.00;0.00;;;10.70;99.90;;;;;;5118304;27;20121;-74
2023/09/14 06:59:22;;;;;;;0.00;0.00;;;10.70;91.00;;;;;;5125531;27;20089;-74
2023/09/14 07:01:48;;;;;;;0.00;0.00;;;10.70;1.00;;;;;;5125306;27;20040;-74
2023/09/14 07:04:14;;;;;;;0.13;0.13;;;10.70;1.00;;;;;;5123374;27;20401;-74
2023/09/14 07:06:39;;;;;;;0.00;0.00;;;10.60;1.00;;;;;;5125218;27;20079;-74
2023/09/14 07:09:06;;;;;;;0.73;0.43;;;10.70;1.00;;;;;;5126360;27;20070;-74
2023/09/14 07:11:32;;;;;;;0.00;0.00;;;10.70;1.00;;;;;;5120050;27;20582;-74
2023/09/14 07:13:58;;;;;;;0.00;0.00;;;10.80;99.90;;;;;;5122745;27;20032;-74
2023/09/14 07:16:24;;;;;;;0.00;0.00;;;10.80;99.90;;;;;;5122456;27;20048;-74
2023/09/14 07:18:49;;;;;;;0.00;0.00;;;10.90;99.90;;;;;;5113885;27;20047;-74
2023/09/14 07:21:15;;;;;;;0.55;0.55;;;11.00;99.90;;;;;;5117690;27;20043;-74
2023/09/14 07:23:41;;;;;;;0.25;0.15;;;11.70;73.50;;;;;;5124329;27;20119;-74
2023/09/14 07:26:07;;;;;;;0.00;0.00;;;11.20;1.00;;;;;;5125975;27;20043;-74
2023/09/14 07:28:33;;;;;;;0.00;0.00;;;11.30;1.00;;;;;;5125720;27;20046;-74
2023/09/14 07:31:04;;;;;;;0.45;0.20;;;11.40;1.00;;;;;;5121669;27;20143;-74
2023/09/14 07:33:29;;;;;;;0.40;0.32;;;11.60;99.90;;;;;;5118360;27;20038;-74
2023/09/14 07:35:58;;;;;;;0.40;0.30;;;11.80;99.90;;;;;;5119987;27;20122;-74
2023/09/14 07:38:26;;;;;;;0.17;0.10;;;11.90;1.00;;;;;;5112327;28;20040;-74
2023/09/14 07:40:52;;;;;;;0.15;0.15;;;12.00;1.00;;;;;;5109931;27;20070;-74
2023/09/14 07:43:17;;;;;;;0.22;0.22;;;12.10;99.90;;;;;;5121512;27;20100;-74
2023/09/14 07:45:44;;;;;;;0.30;0.30;;;12.20;1.00;;;;;;5122571;27;20054;-74
2023/09/14 07:48:10;;;;;;;0.32;0.28;;;12.30;99.90;;;;;;5118608;27;20103;-74
2023/09/14 07:50:39;;;;;;;0.10;0.10;;;12.40;1.00;;;;;;5114442;27;20051;-74
2023/09/14 07:53:08;;;;;;;0.00;0.00;;;12.60;99.90;;;;;;5121284;27;20043;-74
2023/09/14 07:55:34;;;;;;;0.63;0.55;;;12.80;1.00;;;;;;5118869;27;20046;-74
2023/09/14 07:57:59;;;;;;;0.45;0.38;;;12.90;99.90;;;;;;5114051;27;20040;-74
2023/09/14 08:00:25;;;;;;;0.28;0.28;;;13.10;99.90;;;;;;5123604;27;20279;-74
2023/09/14 08:02:51;;;;;;;0.00;0.00;;;13.10;99.90;;;;;;5119094;27;20489;-74
2023/09/14 08:05:17;;;;;;;7.65;0.85;;;13.20;99.90;;;;;;5119730;27;20050;-74
2023/09/14 08:07:43;;;;;;;0.10;0.10;;;13.40;99.90;;;;;;5119563;27;20384;-74
2023/09/14 08:10:09;;;;;;;0.00;0.00;;;13.50;4.70;;;;;;5112711;27;20120;-74
2023/09/14 08:12:37;;;;;;;0.00;0.00;;;13.70;99.90;;;;;;5116930;27;20475;-75
2023/09/14 08:15:06;;;;;;;0.20;0.10;;;14.10;1.00;;;;;;5117879;27;20074;-74
2023/09/14 08:17:32;;;;;;;0.22;0.20;;;14.00;1.00;;;;;;5119174;27;20127;-74
2023/09/14 08:19:57;;;;;;;0.00;0.00;;;14.20;99.90;;;;;;5116551;27;20170;-74
2023/09/14 08:22:23;;;;;;;0.10;0.10;;;14.40;99.90;;;;;;5118583;28;20076;-74
2023/09/14 08:24:49;;;;;;;0.00;0.00;;;14.70;99.90;;;;;;5119752;27;20435;-74
2023/09/14 08:27:15;;;;;;;0.45;0.38;;;15.50;1.00;;;;;;5125778;27;20099;-74
2023/09/14 08:29:43;;;;;;;2.28;0.55;;;16.70;99.90;;;;;;5110541;28;20126;-75
2023/09/14 08:32:12;;;;;;;2.45;0.52;;;17.80;99.90;;;;;;5106333;28;20074;-75
2023/09/14 08:34:38;;;;;;;0.00;0.00;;;18.80;99.90;;;;;;5121673;28;20081;-75
2023/09/14 08:37:04;;;;;;;1.00;0.52;;;19.70;99.90;;;;;;5117957;27;20477;-75
2023/09/14 08:39:30;;;;;;;0.15;0.15;;;20.50;99.90;;;;;;5116455;28;20051;-75
2023/09/14 08:41:55;;;;;;;1.77;0.80;;;21.20;99.90;;;;;;5118501;28;20500;-75
2023/09/14 08:44:22;;;;;;;0.15;0.05;;;21.60;99.90;;;;;;5119902;28;20043;-75
2023/09/14 08:46:49;;;;;;;0.45;0.20;;;22.00;99.90;;;;;;5119845;27;20039;-75
2023/09/14 08:49:19;;;;;;;0.00;0.00;;;22.60;99.90;;;;;;5116708;27;20063;-75
2023/09/14 08:51:45;;;;;;;1.00;0.47;;;22.90;99.90;;;;;;5114423;28;20503;-75
2023/09/14 08:54:12;;;;;;;0.32;0.32;;;23.30;99.90;;;;;;5118187;28;20051;-75
2023/09/14 08:56:39;;;;;;;0.47;0.25;;;23.30;99.90;;;;;;5114370;27;20556;-76
2023/09/14 08:59:28;;;;;;;0.30;0.30;;;23.40;99.90;;;;;;5108316;27;20513;-77
2023/09/14 09:01:57;;;;;;;0.35;0.32;;;23.50;99.90;;;;;;5108869;27;20051;-78
2023/09/14 09:04:24;;;;;;;0.00;0.00;;;23.70;99.90;;;;;;5118702;28;20092;-78
2023/09/14 09:06:50;;;;;;;0.10;0.10;;;23.50;93.30;;;;;;5118380;28;20054;-78
2023/09/14 09:09:19;;;;;;;0.20;0.20;;;23.70;99.90;;;;;;5121790;27;20484;-78
2023/09/14 09:11:46;;;;;;;0.00;0.00;;;24.00;99.90;;;;;;5119476;27;20118;-76
2023/09/14 09:14:14;;;;;;;0.25;0.25;;;23.90;65.80;;;;;;5122171;27;20055;-76
2023/09/14 09:16:39;;;;;;;0.00;0.00;;;23.90;14.60;;;;;;5126900;27;20036;-75
2023/09/14 09:19:07;;;;;;;0.00;0.00;;;23.90;48.20;;;;;;5125371;27;20503;-73
2023/09/14 09:21:36;;;;;;;0.03;0.03;;;24.00;1.00;;;;;;5121319;27;20058;-73
2023/09/14 09:24:07;;;;;;;3.05;0.32;;;24.00;1.00;;;;;;5121609;27;20039;-73
2023/09/14 09:26:37;;;;;;;5.63;0.75;;;23.90;1.00;;;;;;5122164;27;20051;-73
2023/09/14 09:29:16;;;;;;;0.15;0.10;;;24.10;1.00;;;;;;5124706;27;20054;-73
2023/09/14 09:31:44;;;;;;;0.10;0.10;;;24.10;1.00;;;;;;5123183;27;20420;-72
2023/09/14 09:34:11;;;;;;;0.28;0.28;;;24.20;1.00;;;;;;5121441;27;20039;-73
2023/09/14 09:36:38;;;;;;;1.02;0.30;;;24.10;1.00;;;;;;5121463;27;20086;-73
2023/09/14 09:39:06;;;;;;;0.32;0.13;;;24.20;1.00;;;;;;5124552;27;20046;-73
2023/09/14 09:41:35;;;;;;;7.03;0.52;;;24.10;1.00;;;;;;5109813;27;20047;-73
2023/09/14 09:44:13;;;;;;;0.00;0.00;;;24.00;1.00;;;;;;5121298;27;20058;-73
2023/09/14 09:46:39;;;;;;;0.15;0.15;;;23.90;1.00;;;;;;5122600;27;20047;-73
2023/09/14 09:49:22;;;;;;;0.00;0.00;;;23.50;1.00;;;;;;5122571;27;20120;-73
2023/09/14 09:51:50;;;;;;;0.05;0.05;;;23.30;1.00;;;;;;5120875;27;20051;-73
2023/09/14 09:54:18;;;;;;;1.60;0.40;;;23.30;1.00;;;;;;5121556;27;20495;-72
2023/09/14 09:56:44;;;;;;;0.20;0.15;;;23.00;1.00;;;;;;5119084;27;20052;-73
2023/09/14 09:59:12;;;;;;;9.07;0.65;;;22.60;1.00;;;;;;5122088;27;20044;-72
2023/09/14 10:01:44;;;;;;;0.55;0.30;;;22.50;1.00;;;;;;5122822;27;20491;-73
2023/09/14 10:04:17;;;;;;;0.10;0.10;;;22.60;1.00;;;;;;5124050;27;20055;-73
2023/09/14 10:06:50;;;;;;;0.00;0.00;;;22.60;1.00;;;;;;5120360;27;20114;-73
2023/09/14 10:09:16;;;;;;;0.10;0.10;;;22.60;1.00;;;;;;5120535;27;20044;-73
2023/09/14 10:11:46;;;;;;;0.65;0.32;;;22.70;1.00;;;;;;5117297;27;20035;-72
2023/09/14 10:14:14;;;;;;;0.00;0.00;;;22.60;1.00;;;;;;5123013;27;20043;-73
2023/09/14 10:16:44;;;;;;;0.00;0.00;;;22.40;1.00;;;;;;5120206;27;20047;-73
2023/09/14 10:19:11;;;;;;;0.00;0.00;;;22.30;1.00;;;;;;5120278;27;20484;-73
2023/09/14 10:21:37;;;;;;;0.00;0.00;;;22.40;1.00;;;;;;5125759;27;20050;-75
2023/09/14 10:24:06;;;;;;;0.32;0.10;;;22.30;1.00;;;;;;5118305;27;20067;-75
2023/09/14 10:26:36;;;;;;;0.05;0.05;;;22.90;1.00;;;;;;5120278;27;20494;-75
2023/09/14 10:29:08;;;;;;;1.02;0.60;;;23.20;1.00;;;;;;5118465;27;20058;-74
2023/09/14 10:31:35;;;;;;;0.22;0.10;;;22.90;1.00;;;;;;5121203;27;20481;-74
2023/09/14 10:34:01;;;;;;;3.95;0.50;;;23.30;1.00;;;;;;5115680;27;20434;-75
2023/09/14 10:36:31;;;;;;;0.40;0.22;;;23.30;1.00;;;;;;5124898;27;20066;-75
2023/09/14 10:39:04;;;;;;;0.30;0.15;;;23.90;1.00;;;;;;5124580;27;20082;-75
2023/09/14 10:41:30;;;;;;;0.10;0.10;;;24.00;1.00;;;;;;5131179;27;20039;-75
2023/09/14 10:43:56;;;;;;;8.68;0.55;;;24.50;1.00;;;;;;5116237;27;20104;-76
2023/09/14 10:46:33;;;;;;;0.47;0.43;;;24.80;1.00;;;;;;5123104;27;20081;-76
2023/09/14 10:48:59;;;;;;;0.00;0.00;;;24.70;99.90;;;;;;5117390;27;20188;-77
2023/09/14 10:51:28;;;;;;;0.55;0.47;;;24.50;99.90;;;;;;5122784;27;20047;-77
2023/09/14 10:53:54;;;;;;;0.90;0.47;;;24.20;99.90;;;;;;5123236;27;20404;-77
2023/09/14 10:56:30;;;;;;;4.45;0.75;;;23.80;99.90;;;;;;5120000;27;20107;-77
2023/09/14 10:58:57;;;;;;;0.55;0.22;;;23.40;99.90;;;;;;5122383;27;20114;-77
2023/09/14 11:01:24;;;;;;;0.10;0.10;;;23.20;99.90;;;;;;5118522;27;20053;-77
2023/09/14 11:04:26;;;;;;;0.00;0.00;;;22.90;99.90;;;;;;5118163;27;20043;-77
2023/09/14 11:06:54;;;;;;;28.05;1.13;;;23.00;99.90;;;;;;5057852;28;20094;-75
2023/09/14 11:09:23;;;;;;;1.20;0.35;;;23.00;99.90;;;;;;5107389;27;20059;-75
2023/09/14 11:11:52;;;;;;;0.00;0.00;;;22.80;99.90;;;;;;5119473;27;20156;-75
2023/09/14 11:14:20;;;;;;;0.08;0.08;;;22.80;99.90;;;;;;5118359;27;20494;-75
2023/09/14 11:16:51;;;;;;;0.35;0.25;;;22.90;99.90;;;;;;5124043;27;20043;-75
2023/09/14 11:19:31;;;;;;;0.17;0.17;;;22.60;99.90;;;;;;5121760;27;20052;-75
2023/09/14 11:22:14;;;;;;;0.65;0.65;;;22.60;99.90;;;;;;5117602;27;20039;-75
2023/09/14 11:24:41;;;;;;;0.20;0.20;;;22.40;99.90;;;;;;5114818;27;20074;-75
2023/09/14 11:27:07;;;;;;;1.08;0.32;;;22.20;99.90;;;;;;5117487;27;20093;-75
2023/09/14 11:29:33;;;;;;;0.30;0.15;;;21.90;99.90;;;;;;5119804;27;20164;-75
2023/09/14 11:32:06;;;;;;;0.10;0.10;;;21.80;99.90;;;;;;5130886;27;20043;-75
2023/09/14 11:34:34;;;;;;;0.10;0.10;;;21.60;99.90;;;;;;5122008;27;20067;-75
2023/09/14 11:37:02;;;;;;;0.65;0.47;;;21.50;99.90;;;;;;5122700;27;20401;-75
2023/09/14 11:39:30;;;;;;;1.85;0.77;;;21.50;99.90;;;;;;5121655;27;20043;-74
2023/09/14 11:41:59;;;;;;;0.32;0.30;;;21.40;99.90;;;;;;5121330;27;20107;-74
2023/09/14 11:44:28;;;;;;;0.03;0.03;;;21.70;99.90;;;;;;5121654;27;20048;-75
2023/09/14 11:46:56;;;;;;;0.15;0.15;;;22.10;99.90;;;;;;5114100;27;20485;-75
2023/09/14 11:49:27;;;;;;;0.43;0.25;;;22.20;99.90;;;;;;5119891;27;20043;-75
2023/09/14 11:51:53;;;;;;;0.60;0.35;;;21.80;99.90;;;;;;5124540;27;20035;-75
2023/09/14 11:54:20;;;;;;;0.00;0.00;;;21.70;99.90;;;;;;5125731;27;20062;-75
2023/09/14 11:56:46;;;;;;;0.10;0.10;;;22.10;99.90;;;;;;5125825;27;20091;-74
2023/09/14 11:59:12;;;;;;;0.03;0.03;;;23.00;99.90;;;;;;5124079;27;20539;-74
2023/09/14 12:01:37;;;;;;;0.10;0.10;;;23.40;99.90;;;;;;5122550;27;20039;-74
2023/09/14 12:04:05;;;;;;;0.32;0.15;;;23.10;99.90;;;;;;5122571;27;20074;-74
2023/09/14 12:06:31;;;;;;;0.20;0.17;;;22.60;99.90;;;;;;5113972;27;20583;-74
2023/09/14 12:08:58;;;;;;;0.20;0.10;;;22.10;99.90;;;;;;5122408;27;20069;-74
2023/09/14 12:11:23;;;;;;;0.00;0.00;;;21.70;99.90;;;;;;5124056;27;20051;-74
2023/09/14 12:13:50;;;;;;;0.30;0.30;;;21.40;99.90;;;;;;5123613;27;20038;-74
2023/09/14 12:16:21;;;;;;;0.05;0.03;;;21.20;99.90;;;;;;5124611;27;20118;-74
2023/09/14 12:18:47;;;;;;;0.13;0.10;;;21.30;99.90;;;;;;5114475;27;20046;-74
2023/09/14 12:21:14;;;;;;;0.03;0.03;;;22.10;99.90;;;;;;5122077;27;20078;-74
2023/09/14 12:23:42;;;;;;;1.38;0.57;;;22.50;99.90;;;;;;5124178;27;20051;-74
2023/09/14 12:26:12;;;;;;;0.10;0.10;;;23.30;99.90;;;;;;5125750;27;20610;-74
2023/09/14 12:28:38;;;;;;;0.25;0.20;;;23.80;99.90;;;;;;5124378;27;20114;-74
2023/09/14 12:31:04;;;;;;;0.73;0.47;;;24.20;99.90;;;;;;5122710;28;20458;-74
2023/09/14 12:33:30;;;;;;;1.65;0.45;;;23.90;99.90;;;;;;5127390;28;20067;-74
2023/09/14 12:35:57;;;;;;;1.13;0.40;;;23.50;99.90;;;;;;5127923;27;20092;-74
2023/09/14 12:38:23;;;;;;;0.17;0.17;;;23.10;99.90;;;;;;5128633;27;20047;-74
2023/09/14 12:40:50;;;;;;;0.00;0.00;;;22.80;99.90;;;;;;5125231;28;20023;-75
2023/09/14 12:43:17;;;;;;;2.67;0.98;;;22.50;99.90;;;;;;5125261;28;20042;-75
2023/09/14 12:45:43;;;;;;;0.55;0.30;;;22.10;99.90;;;;;;5125197;27;20115;-75
2023/09/14 12:48:09;;;;;;;0.00;0.00;;;21.70;99.90;;;;;;5126516;27;20074;-75
2023/09/14 12:50:38;;;;;;;0.10;0.10;;;21.50;99.90;;;;;;5126072;27;20090;-75
2023/09/14 12:53:08;;;;;;;0.32;0.13;;;21.40;99.90;;;;;;5133210;27;20496;-74
2023/09/14 12:55:38;;;;;;;0.28;0.28;;;21.40;99.90;;;;;;5129591;27;20035;-74